Time,TemperatureF,DewpointF,PressureIn,WindDirection,WindDirectionDegrees,WindSpeedMPH,WindSpeedGustMPH,Humidity,HourlyPrecipIn,Conditions,Clouds,dailyrainin,SoftwareType,DateUTC
2013-01-29 00:00:00,37.1,17.7,29.90,WSW,240,4.0,5.0,45,0.00,,,0.00,Wunderground v.1.15,2013-01-29 07:00:00,
2013-01-29 00:10:00,36.7,17.3,29.90,South,185,3.0,3.0,45,0.00,,,0.00,Wunderground v.1.15,2013-01-29 07:10:00,
2013-01-29 00:20:00,36.7,16.8,29.90,SSE,158,5.0,5.0,44,0.00,,,0.00,Wunderground v.1.15,2013-01-29 07:20:00,
2013-01-29 00:30:00,36.5,17.1,29.90,SSE,150,5.0,5.0,45,0.00,,,0.00,Wunderground v.1.15,2013-01-29 07:30:00,
2013-01-29 00:40:00,36.2,17.4,29.90,SSW,210,5.0,7.0,46,0.00,,,0.00,Wunderground v.1.15,2013-01-29 07:40:00,
2013-01-29 00:45:00,36.1,17.8,29.90,SSE,156,5.0,7.0,47,0.00,,,0.00,Wunderground v.1.15,2013-01-29 07:45:00,
2013-01-29 00:55:00,35.8,18.0,29.90,SW,232,3.0,6.0,48,0.00,,,0.00,Wunderground v.1.15,2013-01-29 07:55:00,
2013-01-29 01:00:00,35.7,17.9,29.90,WNW,284,3.0,3.0,48,0.00,,,0.00,Wunderground v.1.15,2013-01-29 08:00:00,
2013-01-29 01:10:00,35.5,18.2,29.89,SSW,205,4.0,9.0,49,0.00,,,0.00,Wunderground v.1.15,2013-01-29 08:10:00,
2013-01-29 01:15:00,35.3,18.5,29.89,SSE,149,4.0,9.0,50,0.00,,,0.00,Wunderground v.1.15,2013-01-29 08:15:00,
2013-01-29 01:20:00,35.2,17.9,29.89,South,191,3.0,6.0,49,0.00,,,0.00,Wunderground v.1.15,2013-01-29 08:20:00,
2013-01-29 01:30:00,35.1,17.8,29.89,SSW,205,3.0,8.0,49,0.00,,,0.00,Wunderground v.1.15,2013-01-29 08:30:00,
2013-01-29 01:40:00,35.0,17.3,29.87,SSE,162,4.0,4.0,48,0.00,,,0.00,Wunderground v.1.15,2013-01-29 08:40:00,
2013-01-29 01:50:00,34.9,17.2,29.87,South,180,2.0,7.0,48,0.00,,,0.00,Wunderground v.1.15,2013-01-29 08:50:00,
2013-01-29 01:55:00,34.9,17.2,29.87,South,184,3.0,7.0,48,0.00,,,0.00,Wunderground v.1.15,2013-01-29 08:55:00,
2013-01-29 02:00:00,34.9,17.2,29.87,SSW,204,4.0,4.0,48,0.00,,,0.00,Wunderground v.1.15,2013-01-29 09:00:00,
2013-01-29 02:10:00,34.7,17.0,29.87,SW,219,5.0,5.0,48,0.00,,,0.00,Wunderground v.1.15,2013-01-29 09:10:00,
2013-01-29 02:15:00,34.5,17.3,29.87,SSE,166,5.0,5.0,49,0.00,,,0.00,Wunderground v.1.15,2013-01-29 09:15:00,
2013-01-29 02:25:00,34.3,17.6,29.86,SSW,209,4.0,5.0,50,0.00,,,0.00,Wunderground v.1.15,2013-01-29 09:25:00,
2013-01-29 02:35:00,34.2,17.9,29.86,SSW,212,2.0,7.0,51,0.00,,,0.00,Wunderground v.1.15,2013-01-29 09:35:00,
2013-01-29 02:40:00,34.1,17.4,29.86,SW,219,3.0,3.0,50,0.00,,,0.00,Wunderground v.1.15,2013-01-29 09:40:00,
2013-01-29 02:45:00,34.1,17.8,29.86,SW,236,3.0,3.0,51,0.00,,,0.00,Wunderground v.1.15,2013-01-29 09:45:00,
2013-01-29 02:50:00,34.1,17.8,29.86,WSW,248,3.0,5.0,51,0.00,,,0.00,Wunderground v.1.15,2013-01-29 09:50:00,
2013-01-29 02:55:00,34.1,17.8,29.86,WSW,256,3.0,5.0,51,0.00,,,0.00,Wunderground v.1.15,2013-01-29 09:55:00,
2013-01-29 03:00:00,34.1,17.4,29.86,WSW,245,3.0,4.0,50,0.00,,,0.00,Wunderground v.1.15,2013-01-29 10:00:00,
2013-01-29 03:10:00,34.0,17.3,29.86,WSW,256,4.0,4.0,50,0.00,,,0.00,Wunderground v.1.15,2013-01-29 10:10:00,
2013-01-29 03:20:00,33.9,17.7,29.86,SW,225,2.0,2.0,51,0.00,,,0.00,Wunderground v.1.15,2013-01-29 10:20:00,
2013-01-29 03:25:00,33.8,17.6,29.86,SSW,211,1.0,2.0,51,0.00,,,0.00,Wunderground v.1.15,2013-01-29 10:25:00,
2013-01-29 03:30:00,33.7,17.5,29.86,SSW,203,1.0,4.0,51,0.00,,,0.00,Wunderground v.1.15,2013-01-29 10:30:00,
2013-01-29 03:40:00,33.6,17.4,29.85,SSW,213,1.0,3.0,51,0.00,,,0.00,Wunderground v.1.15,2013-01-29 10:40:00,
2013-01-29 03:50:00,33.4,17.6,29.85,South,169,1.0,1.0,52,0.00,,,0.00,Wunderground v.1.15,2013-01-29 10:50:00,
2013-01-29 04:00:00,33.2,17.9,29.84,West,271,1.0,6.0,53,0.00,,,0.00,Wunderground v.1.15,2013-01-29 11:00:00,
2013-01-29 04:10:00,33.0,18.1,29.84,WSW,243,1.0,1.0,54,0.00,,,0.00,Wunderground v.1.15,2013-01-29 11:10:00,
2013-01-29 04:15:00,32.9,18.1,29.83,SSW,210,1.0,1.0,54,0.00,,,0.00,Wunderground v.1.15,2013-01-29 11:15:00,
2013-01-29 04:25:00,32.7,18.3,29.83,SW,222,3.0,3.0,55,0.00,,,0.00,Wunderground v.1.15,2013-01-29 11:25:00,
2013-01-29 04:35:00,32.5,18.5,29.83,WSW,240,1.0,3.0,56,0.00,,,0.00,Wunderground v.1.15,2013-01-29 11:35:00,
2013-01-29 04:45:00,32.4,18.4,29.83,SSE,160,1.0,1.0,56,0.00,,,0.00,Wunderground v.1.15,2013-01-29 11:45:00,
2013-01-29 04:55:00,32.4,18.8,29.82,South,191,1.0,2.0,57,0.00,,,0.00,Wunderground v.1.15,2013-01-29 11:55:00,
2013-01-29 05:00:00,32.4,18.8,29.82,SSW,207,2.0,3.0,57,0.00,,,0.00,Wunderground v.1.15,2013-01-29 12:00:00,
2013-01-29 05:10:00,32.3,18.8,29.82,SSW,207,3.0,3.0,57,0.00,,,0.00,Wunderground v.1.15,2013-01-29 12:10:00,
2013-01-29 05:15:00,32.3,18.8,29.82,South,180,3.0,5.0,57,0.00,,,0.00,Wunderground v.1.15,2013-01-29 12:15:00,
2013-01-29 05:25:00,32.1,19.0,29.82,SSW,196,2.0,2.0,58,0.00,,,0.00,Wunderground v.1.15,2013-01-29 12:25:00,
2013-01-29 05:35:00,31.9,18.8,29.82,South,173,2.0,2.0,58,0.00,,,0.00,Wunderground v.1.15,2013-01-29 12:35:00,
2013-01-29 05:40:00,31.8,18.7,29.82,SSW,193,2.0,2.0,58,0.00,,,0.00,Wunderground v.1.15,2013-01-29 12:40:00,
2013-01-29 05:50:00,31.7,18.6,29.81,SW,226,4.0,4.0,58,0.00,,,0.00,Wunderground v.1.15,2013-01-29 12:50:00,
2013-01-29 05:55:00,31.6,18.5,29.81,SSW,207,4.0,4.0,58,0.00,,,0.00,Wunderground v.1.15,2013-01-29 12:55:00,
2013-01-29 06:00:00,31.5,18.4,29.81,SSW,210,4.0,4.0,58,0.00,,,0.00,Wunderground v.1.15,2013-01-29 13:00:00,
2013-01-29 06:10:00,31.2,18.1,29.81,West,259,4.0,5.0,58,0.00,,,0.00,Wunderground v.1.15,2013-01-29 13:10:00,
2013-01-29 06:20:00,31.2,18.5,29.82,SSW,200,3.0,3.0,59,0.00,,,0.00,Wunderground v.1.15,2013-01-29 13:20:00,
2013-01-29 06:25:00,31.1,18.4,29.82,South,171,2.0,3.0,59,0.00,,,0.00,Wunderground v.1.15,2013-01-29 13:25:00,
2013-01-29 06:35:00,30.8,18.1,29.82,West,266,3.0,3.0,59,0.00,,,0.00,Wunderground v.1.15,2013-01-29 13:35:00,
2013-01-29 06:45:00,30.6,18.7,29.82,SW,219,3.0,5.0,61,0.00,,,0.00,Wunderground v.1.15,2013-01-29 13:45:00,
2013-01-29 06:50:00,30.5,18.6,29.82,WSW,245,3.0,5.0,61,0.00,,,0.00,Wunderground v.1.15,2013-01-29 13:50:00,
2013-01-29 07:00:00,30.4,18.9,29.83,SW,225,3.0,6.0,62,0.00,,,0.00,Wunderground v.1.15,2013-01-29 14:00:00,
2013-01-29 07:10:00,30.2,19.5,29.83,SW,229,3.0,3.0,64,0.00,,,0.00,Wunderground v.1.15,2013-01-29 14:10:00,
2013-01-29 07:20:00,30.1,19.7,29.84,WSW,250,1.0,1.0,65,0.00,,,0.00,Wunderground v.1.15,2013-01-29 14:20:00,
2013-01-29 07:30:00,30.1,19.7,29.84,South,187,0.0,0.0,65,0.00,,,0.00,Wunderground v.1.15,2013-01-29 14:30:00,
2013-01-29 07:35:00,30.1,20.1,29.83,SSW,197,1.0,1.0,66,0.00,,,0.00,Wunderground v.1.15,2013-01-29 14:35:00,
2013-01-29 07:45:00,30.0,20.0,29.84,SSW,198,0.0,2.0,66,0.00,,,0.00,Wunderground v.1.15,2013-01-29 14:45:00,
2013-01-29 07:50:00,30.1,20.5,29.84,SSE,162,1.0,1.0,67,0.00,,,0.00,Wunderground v.1.15,2013-01-29 14:50:00,
2013-01-29 08:00:00,30.2,20.6,29.84,West,260,1.0,3.0,67,0.00,,,0.00,Wunderground v.1.15,2013-01-29 15:00:00,
2013-01-29 08:10:00,30.4,21.1,29.85,SSE,159,2.0,2.0,68,0.00,,,0.00,Wunderground v.1.15,2013-01-29 15:10:00,
2013-01-29 08:15:00,30.4,21.1,29.85,WSW,243,1.0,2.0,68,0.00,,,0.00,Wunderground v.1.15,2013-01-29 15:15:00,
2013-01-29 08:25:00,30.2,21.2,29.85,SSW,210,1.0,1.0,69,0.00,,,0.00,Wunderground v.1.15,2013-01-29 15:25:00,
2013-01-29 08:30:00,30.3,21.3,29.86,West,266,1.0,3.0,69,0.00,,,0.00,Wunderground v.1.15,2013-01-29 15:30:00,
2013-01-29 08:35:00,30.4,21.1,29.86,West,276,2.0,3.0,68,0.00,,,0.00,Wunderground v.1.15,2013-01-29 15:35:00,
2013-01-29 08:45:00,30.7,21.0,29.86,WSW,248,1.0,3.0,67,0.00,,,0.00,Wunderground v.1.15,2013-01-29 15:45:00,
2013-01-29 08:55:00,30.8,20.8,29.86,WSW,257,3.0,3.0,66,0.00,,,0.00,Wunderground v.1.15,2013-01-29 15:55:00,
2013-01-29 09:00:00,30.9,20.1,29.86,WSW,253,2.0,2.0,64,0.00,,,0.00,Wunderground v.1.15,2013-01-29 16:00:00,
2013-01-29 09:10:00,31.0,19.5,29.86,WSW,253,3.0,4.0,62,0.00,,,0.00,Wunderground v.1.15,2013-01-29 16:10:00,
2013-01-29 09:20:00,31.3,17.8,29.86,North,353,4.0,5.0,57,0.00,,,0.00,Wunderground v.1.15,2013-01-29 16:20:00,
2013-01-29 09:30:00,31.5,16.7,29.87,NNW,337,6.0,6.0,54,0.00,,,0.00,Wunderground v.1.15,2013-01-29 16:30:00,
2013-01-29 09:40:00,31.6,15.5,29.86,WNW,290,6.0,6.0,51,0.00,,,0.00,Wunderground v.1.15,2013-01-29 16:40:00,
2013-01-29 09:50:00,31.7,15.6,29.86,NW,319,6.0,6.0,51,0.00,,,0.00,Wunderground v.1.15,2013-01-29 16:50:00,
2013-01-29 09:55:00,31.7,15.2,29.87,NW,322,7.0,8.0,50,0.00,,,0.00,Wunderground v.1.15,2013-01-29 16:55:00,
2013-01-29 10:00:00,31.7,14.7,29.87,WNW,291,7.0,12.0,49,0.00,,,0.00,Wunderground v.1.15,2013-01-29 17:00:00,
2013-01-29 10:10:00,31.6,11.6,29.87,WNW,283,9.0,9.0,43,0.00,,,0.00,Wunderground v.1.15,2013-01-29 17:10:00,
2013-01-29 10:15:00,31.8,12.3,29.87,NW,326,8.0,9.0,44,0.00,,,0.00,Wunderground v.1.15,2013-01-29 17:15:00,
2013-01-29 10:25:00,31.6,13.2,29.87,WNW,292,8.0,9.0,46,0.00,,,0.00,Wunderground v.1.15,2013-01-29 17:25:00,
2013-01-29 10:30:00,31.6,14.1,29.87,NNW,332,8.0,13.0,48,0.00,,,0.00,Wunderground v.1.15,2013-01-29 17:30:00,
2013-01-29 10:40:00,31.2,13.8,29.88,North,349,10.0,10.0,48,0.00,,,0.00,Wunderground v.1.15,2013-01-29 17:40:00,
2013-01-29 10:50:00,32.1,13.6,29.88,NNW,330,8.0,13.0,46,0.00,,,0.00,Wunderground v.1.15,2013-01-29 17:50:00,
2013-01-29 10:55:00,32.3,14.8,29.88,NW,305,9.0,17.0,48,0.00,,,0.00,Wunderground v.1.15,2013-01-29 17:55:00,
2013-01-29 11:00:00,32.0,14.5,29.88,WNW,298,10.0,10.0,48,0.00,,,0.00,Wunderground v.1.15,2013-01-29 18:00:00,
2013-01-29 11:10:00,30.9,18.2,29.88,NW,321,10.0,10.0,59,0.00,,,0.00,Wunderground v.1.15,2013-01-29 18:10:00,
2013-01-29 11:15:00,30.9,18.6,29.88,North,359,9.0,11.0,60,0.00,,,0.00,Wunderground v.1.15,2013-01-29 18:15:00,
2013-01-29 11:25:00,30.6,17.6,29.88,North,8,9.0,12.0,58,0.00,,,0.00,Wunderground v.1.15,2013-01-29 18:25:00,
2013-01-29 11:35:00,31.4,18.3,29.88,WNW,297,7.0,9.0,58,0.00,,,0.00,Wunderground v.1.15,2013-01-29 18:35:00,
2013-01-29 11:45:00,32.4,15.3,29.88,WSW,254,8.0,8.0,49,0.00,,,0.00,Wunderground v.1.15,2013-01-29 18:45:00,
2013-01-29 11:50:00,31.7,13.7,29.88,NNW,333,9.0,14.0,47,0.00,,,0.00,Wunderground v.1.15,2013-01-29 18:50:00,
2013-01-29 12:00:00,31.7,13.3,29.88,NW,326,9.0,9.0,46,0.00,,,0.00,Wunderground v.1.15,2013-01-29 19:00:00,
2013-01-29 12:10:00,31.4,13.5,29.88,WNW,302,10.0,16.0,47,0.00,,,0.00,Wunderground v.1.15,2013-01-29 19:10:00,
2013-01-29 12:20:00,31.6,12.2,29.87,North,349,10.0,15.0,44,0.00,,,0.00,Wunderground v.1.15,2013-01-29 19:20:00,
2013-01-29 12:30:00,31.6,12.2,29.87,NNE,20,10.0,10.0,44,0.00,,,0.00,Wunderground v.1.15,2013-01-29 19:30:00,
2013-01-29 12:35:00,31.6,11.1,29.87,NNE,23,10.0,14.0,42,0.00,,,0.00,Wunderground v.1.15,2013-01-29 19:35:00,
2013-01-29 12:45:00,31.3,10.3,29.87,NNW,340,10.0,11.0,41,0.00,,,0.00,Wunderground v.1.15,2013-01-29 19:45:00,
2013-01-29 12:50:00,31.5,9.4,29.87,NNW,329,13.0,13.0,39,0.00,,,0.00,Wunderground v.1.15,2013-01-29 19:50:00,
2013-01-29 12:55:00,31.9,7.9,29.87,North,355,13.0,13.0,36,0.00,,,0.00,Wunderground v.1.15,2013-01-29 19:55:00,
2013-01-29 13:00:00,31.9,8.5,29.87,NNW,330,13.0,13.0,37,0.00,,,0.00,Wunderground v.1.15,2013-01-29 20:00:00,
2013-01-29 13:10:00,32.4,7.7,29.87,NNW,342,12.0,12.0,35,0.00,,,0.00,Wunderground v.1.15,2013-01-29 20:10:00,
2013-01-29 13:15:00,32.8,8.1,29.87,North,349,12.0,12.0,35,0.00,,,0.00,Wunderground v.1.15,2013-01-29 20:15:00,
2013-01-29 13:20:00,32.4,7.1,29.88,NW,319,13.0,13.0,34,0.00,,,0.00,Wunderground v.1.15,2013-01-29 20:20:00,
2013-01-29 13:30:00,31.8,7.8,29.88,NNW,333,11.0,11.0,36,0.00,,,0.00,Wunderground v.1.15,2013-01-29 20:30:00,
2013-01-29 13:35:00,31.6,7.7,29.88,North,353,11.0,11.0,36,0.00,,,0.00,Wunderground v.1.15,2013-01-29 20:35:00,
2013-01-29 13:45:00,31.3,5.5,29.88,NNW,336,13.0,13.0,33,0.00,,,0.00,Wunderground v.1.15,2013-01-29 20:45:00,
2013-01-29 13:50:00,31.3,5.5,29.88,North,352,13.0,15.0,33,0.00,,,0.00,Wunderground v.1.15,2013-01-29 20:50:00,
2013-01-29 13:55:00,31.0,5.2,29.89,NNW,327,14.0,15.0,33,0.00,,,0.00,Wunderground v.1.15,2013-01-29 20:55:00,
2013-01-29 14:00:00,31.2,6.0,29.89,NW,311,13.0,13.0,34,0.00,,,0.00,Wunderground v.1.15,2013-01-29 21:00:00,
2013-01-29 14:10:00,31.2,5.4,29.89,NNW,330,12.0,16.0,33,0.00,,,0.00,Wunderground v.1.15,2013-01-29 21:10:00,
2013-01-29 14:20:00,31.3,5.5,29.89,WNW,297,13.0,13.0,33,0.00,,,0.00,Wunderground v.1.15,2013-01-29 21:20:00,
2013-01-29 14:25:00,31.3,5.5,29.90,WNW,286,12.0,18.0,33,0.00,,,0.00,Wunderground v.1.15,2013-01-29 21:25:00,
2013-01-29 14:35:00,31.6,6.4,29.90,NW,320,13.0,13.0,34,0.00,,,0.00,Wunderground v.1.15,2013-01-29 21:35:00,
2013-01-29 14:40:00,31.7,5.8,29.89,NW,304,12.0,12.0,33,0.00,,,0.00,Wunderground v.1.15,2013-01-29 21:40:00,
2013-01-29 14:50:00,32.8,5.4,29.90,NNW,342,11.0,14.0,31,0.00,,,0.00,Wunderground v.1.15,2013-01-29 21:50:00,
2013-01-29 15:00:00,33.0,4.1,29.90,North,352,14.0,17.0,29,0.00,,,0.00,Wunderground v.1.15,2013-01-29 22:00:00,
2013-01-29 15:10:00,32.8,2.4,29.90,NW,308,16.0,16.0,27,0.00,,,0.00,Wunderground v.1.15,2013-01-29 22:10:00,
2013-01-29 15:15:00,33.1,3.5,29.90,North,360,17.0,29.0,28,0.00,,,0.00,Wunderground v.1.15,2013-01-29 22:15:00,
2013-01-29 15:20:00,33.3,2.9,29.91,NNW,342,14.0,19.0,27,0.00,,,0.00,Wunderground v.1.15,2013-01-29 22:20:00,
2013-01-29 15:30:00,33.2,4.3,29.92,NW,306,16.0,16.0,29,0.00,,,0.00,Wunderground v.1.15,2013-01-29 22:30:00,
2013-01-29 15:40:00,33.1,3.5,29.92,North,4,14.0,14.0,28,0.00,,,0.00,Wunderground v.1.15,2013-01-29 22:40:00,
2013-01-29 15:45:00,33.1,3.5,29.91,North,359,14.0,20.0,28,0.00,,,0.00,Wunderground v.1.15,2013-01-29 22:45:00,
2013-01-29 15:55:00,33.3,3.6,29.93,WNW,295,15.0,15.0,28,0.00,,,0.00,Wunderground v.1.15,2013-01-29 22:55:00,
2013-01-29 16:00:00,33.1,3.5,29.92,NW,308,14.0,14.0,28,0.00,,,0.00,Wunderground v.1.15,2013-01-29 23:00:00,
2013-01-29 16:10:00,33.6,4.7,29.93,NW,315,12.0,12.0,29,0.00,,,0.00,Wunderground v.1.15,2013-01-29 23:10:00,
2013-01-29 16:15:00,33.8,4.8,29.94,NW,324,11.0,16.0,29,0.00,,,0.00,Wunderground v.1.15,2013-01-29 23:15:00,
2013-01-29 16:25:00,33.3,5.1,29.95,WNW,298,13.0,14.0,30,0.00,,,0.00,Wunderground v.1.15,2013-01-29 23:25:00,
2013-01-29 16:35:00,33.0,4.9,29.95,NW,316,13.0,15.0,30,0.00,,,0.00,Wunderground v.1.15,2013-01-29 23:35:00,
2013-01-29 16:40:00,32.9,5.5,29.95,WNW,297,12.0,13.0,31,0.00,,,0.00,Wunderground v.1.15,2013-01-29 23:40:00,
2013-01-29 16:50:00,32.7,6.0,29.96,NW,304,13.0,13.0,32,0.00,,,0.00,Wunderground v.1.15,2013-01-29 23:50:00,
2013-01-29 17:00:00,32.6,5.3,29.96,North,350,12.0,12.0,31,0.00,,,0.00,Wunderground v.1.15,2013-01-30 00:00:00,
2013-01-29 17:10:00,32.3,5.0,29.97,NNW,329,14.0,16.0,31,0.00,,,0.00,Wunderground v.1.15,2013-01-30 00:10:00,
2013-01-29 17:15:00,31.8,5.9,29.98,NNE,13,15.0,16.0,33,0.00,,,0.00,Wunderground v.1.15,2013-01-30 00:15:00,
2013-01-29 17:25:00,31.3,6.8,29.98,North,351,13.0,14.0,35,0.00,,,0.00,Wunderground v.1.15,2013-01-30 00:25:00,
2013-01-29 17:35:00,31.2,7.3,29.99,NNE,19,12.0,13.0,36,0.00,,,0.00,Wunderground v.1.15,2013-01-30 00:35:00,
2013-01-29 17:45:00,31.0,7.7,30.00,West,270,9.0,12.0,37,0.00,,,0.00,Wunderground v.1.15,2013-01-30 00:45:00,
2013-01-29 17:50:00,30.9,8.2,30.00,North,5,8.0,8.0,38,0.00,,,0.00,Wunderground v.1.15,2013-01-30 00:50:00,
2013-01-29 18:00:00,30.6,8.0,30.01,NNW,330,7.0,7.0,38,0.00,,,0.00,Wunderground v.1.15,2013-01-30 01:00:00,
2013-01-29 18:10:00,30.5,7.9,30.01,North,354,6.0,8.0,38,0.00,,,0.00,Wunderground v.1.15,2013-01-30 01:10:00,
2013-01-29 18:20:00,30.4,8.4,30.02,NW,309,8.0,8.0,39,0.00,,,0.00,Wunderground v.1.15,2013-01-30 01:20:00,
2013-01-29 18:25:00,30.5,8.4,30.02,NNW,328,8.0,8.0,39,0.00,,,0.00,Wunderground v.1.15,2013-01-30 01:25:00,
2013-01-29 18:35:00,30.4,8.9,30.03,NW,308,8.0,8.0,40,0.00,,,0.00,Wunderground v.1.15,2013-01-30 01:35:00,
2013-01-29 18:45:00,30.5,9.0,30.04,NW,323,7.0,11.0,40,0.00,,,0.00,Wunderground v.1.15,2013-01-30 01:45:00,
2013-01-29 18:50:00,30.5,9.6,30.05,NNW,345,8.0,14.0,41,0.00,,,0.00,Wunderground v.1.15,2013-01-30 01:50:00,
2013-01-29 19:00:00,30.4,9.5,30.05,North,7,9.0,12.0,41,0.00,,,0.00,Wunderground v.1.15,2013-01-30 02:00:00,
2013-01-29 19:10:00,30.3,9.9,30.06,North,354,8.0,10.0,42,0.00,,,0.00,Wunderground v.1.15,2013-01-30 02:10:00,
2013-01-29 19:15:00,30.2,9.8,30.06,WNW,297,8.0,10.0,42,0.00,,,0.00,Wunderground v.1.15,2013-01-30 02:15:00,
2013-01-29 19:25:00,30.1,10.3,30.07,NNE,14,6.0,10.0,43,0.00,,,0.00,Wunderground v.1.15,2013-01-30 02:25:00,
2013-01-29 19:35:00,29.9,10.6,30.07,NNW,336,6.0,11.0,44,0.00,,,0.00,Wunderground v.1.15,2013-01-30 02:35:00,
2013-01-29 19:45:00,29.7,10.9,30.08,NW,305,9.0,9.0,45,0.00,,,0.00,Wunderground v.1.15,2013-01-30 02:45:00,
2013-01-29 19:50:00,29.6,10.8,30.08,NNW,336,6.0,6.0,45,0.00,,,0.00,Wunderground v.1.15,2013-01-30 02:50:00,
2013-01-29 19:55:00,29.6,10.8,30.08,NW,307,5.0,6.0,45,0.00,,,0.00,Wunderground v.1.15,2013-01-30 02:55:00,
2013-01-29 20:00:00,29.5,11.2,30.09,WNW,299,6.0,11.0,46,0.00,,,0.00,Wunderground v.1.15,2013-01-30 03:00:00,
2013-01-29 20:10:00,29.4,11.1,30.09,ENE,60,5.0,8.0,46,0.00,,,0.00,Wunderground v.1.15,2013-01-30 03:10:00,
2013-01-29 20:20:00,29.4,11.6,30.10,NE,50,5.0,5.0,47,0.00,,,0.00,Wunderground v.1.15,2013-01-30 03:20:00,
2013-01-29 20:30:00,29.4,11.6,30.10,NNE,27,4.0,7.0,47,0.00,,,0.00,Wunderground v.1.15,2013-01-30 03:30:00,
2013-01-29 20:40:00,29.3,12.0,30.11,North,359,5.0,5.0,48,0.00,,,0.00,Wunderground v.1.15,2013-01-30 03:40:00,
2013-01-29 20:50:00,29.2,11.9,30.12,NE,41,5.0,8.0,48,0.00,,,0.00,Wunderground v.1.15,2013-01-30 03:50:00,
2013-01-29 21:00:00,29.1,12.3,30.12,NNE,26,5.0,9.0,49,0.00,,,0.00,Wunderground v.1.15,2013-01-30 04:00:00,
2013-01-29 21:10:00,29.0,12.7,30.13,NNE,12,6.0,8.0,50,0.00,,,0.00,Wunderground v.1.15,2013-01-30 04:10:00,
2013-01-29 21:15:00,29.0,12.7,30.13,NW,326,7.0,10.0,50,0.00,,,0.00,Wunderground v.1.15,2013-01-30 04:15:00,
2013-01-29 21:25:00,28.9,13.0,30.13,NE,34,5.0,6.0,51,0.00,,,0.00,Wunderground v.1.15,2013-01-30 04:25:00,
2013-01-29 21:30:00,28.7,13.3,30.14,NW,325,4.0,4.0,52,0.00,,,0.00,Wunderground v.1.15,2013-01-30 04:30:00,
2013-01-29 21:40:00,28.6,13.2,30.14,ENE,65,5.0,5.0,52,0.00,,,0.00,Wunderground v.1.15,2013-01-30 04:40:00,
2013-01-29 21:50:00,28.3,13.3,30.14,ENE,57,3.0,3.0,53,0.00,,,0.00,Wunderground v.1.15,2013-01-30 04:50:00,
2013-01-29 21:55:00,28.2,13.2,30.15,NNE,19,2.0,3.0,53,0.00,,,0.00,Wunderground v.1.15,2013-01-30 04:55:00,
2013-01-29 22:05:00,28.2,13.7,30.15,NNE,18,1.0,1.0,54,0.00,,,0.00,Wunderground v.1.15,2013-01-30 05:05:00,
2013-01-29 22:10:00,28.2,13.7,30.15,NE,44,1.0,2.0,54,0.00,,,0.00,Wunderground v.1.15,2013-01-30 05:10:00,
2013-01-29 22:15:00,28.2,13.7,30.16,NW,318,2.0,2.0,54,0.00,,,0.00,Wunderground v.1.15,2013-01-30 05:15:00,
2013-01-29 22:25:00,28.1,13.6,30.16,NNE,32,1.0,2.0,54,0.00,,,0.00,Wunderground v.1.15,2013-01-30 05:25:00,
2013-01-29 22:35:00,28.0,13.9,30.17,WNW,293,3.0,3.0,55,0.00,,,0.00,Wunderground v.1.15,2013-01-30 05:35:00,
2013-01-29 22:40:00,28.0,13.9,30.17,North,357,3.0,7.0,55,0.00,,,0.00,Wunderground v.1.15,2013-01-30 05:40:00,
2013-01-29 22:50:00,27.7,13.6,30.17,NNE,26,3.0,4.0,55,0.00,,,0.00,Wunderground v.1.15,2013-01-30 05:50:00,
2013-01-29 23:00:00,27.5,14.2,30.18,NNW,345,4.0,6.0,57,0.00,,,0.00,Wunderground v.1.15,2013-01-30 06:00:00,
2013-01-29 23:10:00,27.5,14.6,30.19,NNE,27,5.0,8.0,58,0.00,,,0.00,Wunderground v.1.15,2013-01-30 06:10:00,
2013-01-29 23:15:00,27.4,14.5,30.19,North,3,6.0,8.0,58,0.00,,,0.00,Wunderground v.1.15,2013-01-30 06:15:00,
2013-01-29 23:25:00,27.5,15.0,30.20,North,352,8.0,13.0,59,0.00,,,0.00,Wunderground v.1.15,2013-01-30 06:25:00,
2013-01-29 23:35:00,27.4,15.3,30.20,NNE,27,6.0,8.0,60,0.00,,,0.00,Wunderground v.1.15,2013-01-30 06:35:00,
2013-01-29 23:40:00,27.3,15.2,30.21,NNE,22,5.0,5.0,60,0.00,,,0.00,Wunderground v.1.15,2013-01-30 06:40:00,
2013-01-29 23:50:00,27.1,15.4,30.21,NE,44,6.0,6.0,61,0.00,,,0.00,Wunderground v.1.15,2013-01-30 06:50:00,